createdAt,value
2019-01-04T00:00:12.071Z,7.5
2019-01-04T00:01:13.605Z,7.6
2019-01-04T00:02:15.177Z,7.7
2019-01-04T00:03:16.595Z,7.7
2019-01-04T00:04:17.826Z,7.8
2019-01-04T00:05:19.354Z,7.8
2019-01-04T00:06:20.789Z,7.9
2019-01-04T00:07:22.186Z,7.9
2019-01-04T00:08:23.710Z,7.9
2019-01-04T00:09:25.090Z,7.9
2019-01-04T00:10:26.658Z,7.9
2019-01-04T00:11:28.225Z,7.8
2019-01-04T00:12:29.596Z,7.9
2019-01-04T00:13:30.843Z,7.9
2019-01-04T00:14:32.375Z,7.9
2019-01-04T00:15:33.747Z,7.9
2019-01-04T00:16:35.338Z,7.9
2019-01-04T00:17:36.740Z,7.9
2019-01-04T00:18:38.286Z,7.9
2019-01-04T00:19:39.829Z,7.9
2019-01-04T00:20:41.375Z,7.8
2019-01-04T00:21:43.096Z,7.8
2019-01-04T00:22:44.485Z,7.8
2019-01-04T00:23:46.005Z,7.8
2019-01-04T00:24:47.555Z,7.8
2019-01-04T00:25:49.081Z,7.8
2019-01-04T00:26:50.624Z,7.7
2019-01-04T00:27:52.167Z,7.8
2019-01-04T00:28:53.696Z,7.8
2019-01-04T00:29:55.236Z,7.8
2019-01-04T00:30:56.753Z,7.8
2019-01-04T00:31:58.272Z,7.8
2019-01-04T00:32:59.668Z,7.8
2019-01-04T00:34:01.205Z,7.8
2019-01-04T00:35:02.580Z,7.8
2019-01-04T00:36:04.125Z,7.8
2019-01-04T00:37:05.697Z,7.9
2019-01-04T00:38:07.075Z,7.9
2019-01-04T00:39:08.610Z,7.9
2019-01-04T00:40:09.989Z,7.9
2019-01-04T00:41:11.548Z,7.8
2019-01-04T00:42:13.083Z,7.8
2019-01-04T00:43:14.605Z,7.8
2019-01-04T00:44:16.138Z,7.8
2019-01-04T00:45:17.691Z,7.8
2019-01-04T00:46:19.075Z,7.8
2019-01-04T00:47:20.615Z,7.8
2019-01-04T00:48:22.129Z,7.9
2019-01-04T00:49:23.676Z,7.9
2019-01-04T00:50:25.207Z,7.9
2019-01-04T00:51:26.589Z,7.9
2019-01-04T00:52:28.119Z,7.9
2019-01-04T00:53:29.654Z,7.9
2019-01-04T00:54:31.026Z,7.9
2019-01-04T00:55:32.418Z,7.9
2019-01-04T00:56:33.792Z,7.2
2019-01-04T00:57:35.311Z,7.3
2019-01-04T00:58:36.833Z,7.3
2019-01-04T00:59:38.377Z,7.4
2019-01-04T01:00:39.939Z,7.4
2019-01-04T01:01:41.574Z,7.5
2019-01-04T01:02:43.105Z,7.5
2019-01-04T01:03:44.495Z,7.5
2019-01-04T01:04:45.855Z,7.5
2019-01-04T01:05:47.387Z,7.5
2019-01-04T01:06:48.915Z,7.5
2019-01-04T01:07:50.444Z,7.5
2019-01-04T01:08:51.972Z,7.5
2019-01-04T01:09:53.376Z,7.5
2019-01-04T01:10:54.903Z,7.5
2019-01-04T01:11:56.434Z,7.5
2019-01-04T01:12:57.986Z,7.6
2019-01-04T01:13:59.525Z,7.6
2019-01-04T01:15:01.077Z,7.6
2019-01-04T01:16:02.287Z,7.6
2019-01-04T01:17:03.503Z,7.6
2019-01-04T01:18:04.751Z,7.6
2019-01-04T01:19:06.277Z,7.6
2019-01-04T01:20:07.665Z,7.6
2019-01-04T01:21:09.168Z,7.6
2019-01-04T01:22:10.367Z,7.6
2019-01-04T01:23:11.889Z,7.6
2019-01-04T01:24:13.426Z,7.6
2019-01-04T01:25:14.973Z,7.6
2019-01-04T01:26:16.515Z,7.6
2019-01-04T01:27:18.045Z,7.6
2019-01-04T01:28:19.408Z,7.7
2019-01-04T01:29:20.941Z,7.7
2019-01-04T01:30:22.477Z,7.7
2019-01-04T01:31:23.985Z,7.8
2019-01-04T01:32:25.355Z,7.8
2019-01-04T01:33:26.749Z,7.8
2019-01-04T01:34:28.131Z,7.8
2019-01-04T01:35:29.661Z,7.8
2019-01-04T01:36:30.876Z,7.8
2019-01-04T01:37:32.419Z,7.8
2019-01-04T01:38:33.931Z,7.8
2019-01-04T01:39:35.294Z,7.8
2019-01-04T01:40:36.815Z,7.8
2019-01-04T01:41:38.347Z,7.8
2019-01-04T01:42:39.755Z,7.8
2019-01-04T01:43:41.128Z,7.8
2019-01-04T01:44:42.649Z,7.9
2019-01-04T01:45:44.193Z,7.8
2019-01-04T01:46:45.724Z,7.8
2019-01-04T01:47:47.105Z,7.8
2019-01-04T01:48:48.641Z,7.8
2019-01-04T01:49:50.207Z,7.8
2019-01-04T01:50:51.737Z,7.8
2019-01-04T01:51:53.283Z,7.8
2019-01-04T01:52:54.660Z,7.8
2019-01-04T01:53:56.033Z,7.8
2019-01-04T01:54:57.545Z,7.8
2019-01-04T01:55:58.909Z,7.8
2019-01-04T01:57:00.454Z,7.7
2019-01-04T01:58:01.849Z,7.7
2019-01-04T01:59:02.905Z,7.7
2019-01-04T02:00:04.300Z,7.7
2019-01-04T02:01:05.849Z,7.7
2019-01-04T02:02:07.208Z,7.7
2019-01-04T02:03:08.426Z,7.6
2019-01-04T02:04:09.815Z,7.6
2019-01-04T02:05:11.332Z,7.5
2019-01-04T02:06:12.886Z,7.5
2019-01-04T02:07:14.263Z,7.4
2019-01-04T02:08:15.775Z,7.3
2019-01-04T02:09:17.166Z,7.2
2019-01-04T02:10:18.685Z,7.2
2019-01-04T02:11:20.038Z,7.1
2019-01-04T02:12:21.586Z,7.2
2019-01-04T02:13:23.122Z,7.1
2019-01-04T02:14:24.658Z,7.1
2019-01-04T02:15:26.033Z,7.1
2019-01-04T02:16:27.416Z,7.1
2019-01-04T02:17:28.971Z,7.1
2019-01-04T02:18:30.348Z,7.1
2019-01-04T02:19:31.866Z,7.1
2019-01-04T02:20:33.386Z,7.1
2019-01-04T02:21:34.907Z,7.1
2019-01-04T02:22:36.275Z,7.1
2019-01-04T02:23:37.810Z,7.1
2019-01-04T02:24:39.181Z,7.2
2019-01-04T02:25:40.539Z,7.1
2019-01-04T02:26:42.061Z,7.1
2019-01-04T02:27:43.589Z,7.1
2019-01-04T02:28:45.006Z,7.1
2019-01-04T02:29:46.225Z,7.1
2019-01-04T02:30:47.767Z,7.1
2019-01-04T02:31:49.327Z,7.1
2019-01-04T02:32:50.916Z,7.1
2019-01-04T02:33:52.279Z,7.1
2019-01-04T02:34:53.846Z,7.1
2019-01-04T02:35:55.228Z,7.1
2019-01-04T02:36:56.628Z,7.1
2019-01-04T02:37:58.154Z,7.1
2019-01-04T02:38:59.530Z,7.1
2019-01-04T02:40:01.071Z,7.1
2019-01-04T02:41:02.552Z,7.1
2019-01-04T02:42:04.078Z,7.1
2019-01-04T02:43:05.476Z,7.1
2019-01-04T02:44:07.028Z,7.1
2019-01-04T02:45:08.420Z,7.1
2019-01-04T02:46:09.787Z,7.1
2019-01-04T02:47:11.175Z,7.2
2019-01-04T02:48:12.422Z,7.1
2019-01-04T02:49:13.806Z,7.2
2019-01-04T02:50:15.273Z,7.2
2019-01-04T02:51:16.511Z,7.2
2019-01-04T02:52:18.070Z,7.2
2019-01-04T02:53:19.436Z,7.2
2019-01-04T02:54:20.955Z,7.2
2019-01-04T02:55:22.338Z,7.2
2019-01-04T02:56:23.912Z,7.2
2019-01-04T02:57:25.303Z,7.2
2019-01-04T02:58:26.824Z,7.2
2019-01-04T02:59:28.382Z,7.2
2019-01-04T03:00:29.928Z,7.2
2019-01-04T03:01:31.453Z,7.2
2019-01-04T03:02:32.658Z,7.2
2019-01-04T03:03:34.209Z,7.2
2019-01-04T03:04:35.784Z,7.3
2019-01-04T03:05:37.305Z,7.3
2019-01-04T03:06:38.848Z,7.3
2019-01-04T03:07:40.234Z,7.3
2019-01-04T03:08:41.763Z,7.4
2019-01-04T03:09:43.136Z,7.4
2019-01-04T03:10:44.666Z,7.4
2019-01-04T03:11:46.195Z,7.5
2019-01-04T03:12:47.562Z,7.5
2019-01-04T03:13:49.097Z,7.5
2019-01-04T03:14:50.645Z,7.5
2019-01-04T03:15:52.196Z,7.5
2019-01-04T03:16:53.742Z,7.6
2019-01-04T03:17:55.278Z,7.6
2019-01-04T03:18:56.845Z,7.6
2019-01-04T03:19:58.359Z,7.7
2019-01-04T03:20:59.900Z,7.7
2019-01-04T03:22:01.142Z,7.8
2019-01-04T03:23:02.669Z,7.8
2019-01-04T03:24:04.048Z,7.8
2019-01-04T03:25:05.455Z,7.9
2019-01-04T03:26:07.020Z,7.9
2019-01-04T03:27:08.571Z,7.9
2019-01-04T03:28:10.122Z,7.9
2019-01-04T03:29:11.498Z,7.8
2019-01-04T03:30:13.057Z,7.8
2019-01-04T03:31:14.623Z,7.8
2019-01-04T03:32:16.233Z,7.8
2019-01-04T03:33:17.817Z,7.8
2019-01-04T03:34:19.346Z,7.8
2019-01-04T03:35:20.743Z,7.8
2019-01-04T03:36:22.287Z,7.8
2019-01-04T03:37:23.826Z,7.8
2019-01-04T03:38:25.224Z,7.8
2019-01-04T03:39:26.787Z,7.8
2019-01-04T03:40:28.191Z,7.8
2019-01-04T03:41:29.730Z,7.6
2019-01-04T03:42:31.126Z,7.7
2019-01-04T03:43:32.653Z,7.7
2019-01-04T03:44:34.079Z,7.7
2019-01-04T03:45:35.653Z,7.8
2019-01-04T03:46:37.044Z,7.8
2019-01-04T03:47:38.438Z,7.8
2019-01-04T03:48:39.983Z,7.8
2019-01-04T03:49:41.515Z,7.8
2019-01-04T03:50:43.264Z,7.8
2019-01-04T03:51:44.810Z,7.8
2019-01-04T03:52:46.178Z,7.8
2019-01-04T03:53:47.704Z,7.9
2019-01-04T03:54:49.240Z,7.9
2019-01-04T03:55:50.620Z,7.9
2019-01-04T03:56:52.159Z,7.9
2019-01-04T03:57:53.525Z,7.9
2019-01-04T03:58:55.051Z,7.9
2019-01-04T03:59:56.609Z,7.9
2019-01-04T04:00:58.010Z,7.8
2019-01-04T04:01:59.595Z,7.8
2019-01-04T04:03:01.157Z,7.8
2019-01-04T04:04:02.526Z,7.7
2019-01-04T04:05:03.901Z,7.7
2019-01-04T04:06:05.425Z,7.7
2019-01-04T04:07:06.960Z,7.7
2019-01-04T04:08:08.491Z,7.7
2019-01-04T04:09:10.027Z,7.7
2019-01-04T04:10:11.546Z,7.7
2019-01-04T04:11:13.066Z,7.8
2019-01-04T04:12:14.590Z,7.8
2019-01-04T04:13:16.114Z,7.9
2019-01-04T04:14:17.670Z,7.9
2019-01-04T04:15:19.192Z,7.9
2019-01-04T04:16:20.577Z,7.9
2019-01-04T04:17:22.142Z,7.9
2019-01-04T04:18:23.373Z,7.9
2019-01-04T04:19:24.934Z,7.8
2019-01-04T04:20:26.485Z,7.7
2019-01-04T04:21:28.053Z,7.6
2019-01-04T04:22:29.442Z,7.5
2019-01-04T04:23:30.973Z,7.4
2019-01-04T04:24:32.403Z,7.3
2019-01-04T04:25:33.942Z,7.2
2019-01-04T04:26:35.468Z,7.2
2019-01-04T04:27:36.729Z,7.1
2019-01-04T04:28:38.132Z,7.2
2019-01-04T04:29:39.363Z,7.2
2019-01-04T04:30:40.593Z,7.2
2019-01-04T04:31:41.982Z,7.2
2019-01-04T04:32:43.358Z,7.2
2019-01-04T04:33:44.883Z,7.2
2019-01-04T04:34:48.115Z,7.2
2019-01-04T04:35:49.484Z,7.2
2019-01-04T04:36:51.024Z,7.2
2019-01-04T04:37:52.407Z,7.2
2019-01-04T04:38:53.774Z,7.2
2019-01-04T04:39:55.612Z,7.2
2019-01-04T04:40:56.856Z,7.2
2019-01-04T04:41:58.282Z,7.2
2019-01-04T04:42:59.676Z,7.2
2019-01-04T04:44:00.930Z,7.2
2019-01-04T04:45:02.486Z,7.3
2019-01-04T04:46:04.038Z,7.4
2019-01-04T04:47:05.292Z,7.4
2019-01-04T04:48:06.889Z,7.5
2019-01-04T04:49:08.456Z,7.6
2019-01-04T04:50:09.871Z,7.7
2019-01-04T04:51:11.116Z,7.8
2019-01-04T04:52:12.656Z,7.9
2019-01-04T04:53:14.208Z,7.9
2019-01-04T04:54:15.767Z,7.9
2019-01-04T04:55:17.174Z,7.9
2019-01-04T04:56:18.565Z,7.9
2019-01-04T04:57:20.105Z,7.9
2019-01-04T04:58:21.640Z,7.9
2019-01-04T04:59:23.167Z,7.9
2019-01-04T05:00:24.713Z,7.9
2019-01-04T05:01:26.264Z,7.9
2019-01-04T05:02:27.489Z,7.9
2019-01-04T05:03:29.020Z,7.9
2019-01-04T05:04:30.405Z,7.8
2019-01-04T05:05:31.962Z,7.8
2019-01-04T05:06:33.514Z,7.8
2019-01-04T05:07:35.095Z,7.8
2019-01-04T05:08:36.465Z,7.8
2019-01-04T05:09:37.858Z,7.8
2019-01-04T05:10:39.406Z,7.8
2019-01-04T05:11:40.765Z,7.8
2019-01-04T05:12:42.298Z,7.7
2019-01-04T05:13:43.683Z,7.7
2019-01-04T05:14:45.071Z,7.7
2019-01-04T05:15:46.450Z,7.6
2019-01-04T05:16:48.025Z,7.6
2019-01-04T05:17:49.396Z,7.6
2019-01-04T05:18:50.798Z,7.6
2019-01-04T05:19:52.338Z,7.6
2019-01-04T05:20:53.692Z,7.6
2019-01-04T05:21:55.260Z,7.6
2019-01-04T05:22:56.807Z,7.6
2019-01-04T05:23:58.206Z,7.6
2019-01-04T05:25:14.275Z,7.6
2019-01-04T05:26:15.676Z,7.7
2019-01-04T05:27:17.056Z,7.7
2019-01-04T05:28:18.611Z,7.8
2019-01-04T05:29:20.160Z,7.8
2019-01-04T05:30:21.380Z,7.8
2019-01-04T05:31:22.910Z,7.7
2019-01-04T05:32:24.450Z,7.7
2019-01-04T05:33:25.835Z,7.7
2019-01-04T05:34:27.375Z,7.6
2019-01-04T05:35:28.739Z,7.6
2019-01-04T05:36:30.272Z,7.6
2019-01-04T05:37:31.653Z,7.5
2019-01-04T05:38:32.869Z,7.5
2019-01-04T05:39:34.384Z,7.5
2019-01-04T05:40:35.906Z,7.4
2019-01-04T05:41:37.315Z,7.4
2019-01-04T05:42:38.857Z,7.4
2019-01-04T05:43:40.244Z,7.3
2019-01-04T05:44:41.782Z,7.3
2019-01-04T05:45:43.155Z,7.3
2019-01-04T05:46:44.547Z,7.2
2019-01-04T05:47:46.076Z,7.2
2019-01-04T05:48:47.620Z,7.2
2019-01-04T05:49:49.154Z,7.2
2019-01-04T05:50:50.389Z,7.2
2019-01-04T05:51:51.473Z,7.2
2019-01-04T05:52:52.845Z,7.2
2019-01-04T05:53:54.375Z,7.3
2019-01-04T05:54:55.964Z,7.3
2019-01-04T05:55:57.494Z,7.4
2019-01-04T05:56:59.023Z,7.4
2019-01-04T05:58:00.404Z,7.4
2019-01-04T05:59:01.772Z,7.5
2019-01-04T06:00:03.215Z,7.5
2019-01-04T06:01:04.773Z,7.5
2019-01-04T06:02:06.280Z,7.5
2019-01-04T06:03:07.945Z,7.5
2019-01-04T06:04:09.325Z,7.5
2019-01-04T06:05:10.708Z,7.5
2019-01-04T06:06:11.961Z,7.6
2019-01-04T06:07:13.534Z,7.6
2019-01-04T06:08:15.063Z,7.6
2019-01-04T06:09:18.014Z,7.7
2019-01-04T06:10:19.571Z,7.7
2019-01-04T06:11:21.014Z,7.6
2019-01-04T06:12:22.551Z,7.6
2019-01-04T06:13:23.919Z,7.5
2019-01-04T06:14:25.297Z,7.4
2019-01-04T06:15:26.828Z,7.3
2019-01-04T06:16:28.219Z,7.2
2019-01-04T06:17:29.289Z,7.2
2019-01-04T06:18:30.832Z,7.2
2019-01-04T06:19:32.380Z,7.2
2019-01-04T06:20:33.895Z,7.2
2019-01-04T06:21:35.418Z,7.2
2019-01-04T06:22:38.071Z,7.2
2019-01-04T06:23:39.482Z,7.2
2019-01-04T06:24:41.024Z,7.2
2019-01-04T06:25:42.405Z,7.2
2019-01-04T06:26:43.761Z,7.2
2019-01-04T06:27:45.532Z,7.2
2019-01-04T06:28:47.060Z,7.2
2019-01-04T06:29:48.605Z,7.2
2019-01-04T06:30:50.118Z,7.3
2019-01-04T06:31:51.695Z,7.4
2019-01-04T06:32:53.078Z,7.4
2019-01-04T06:33:54.485Z,7.5
2019-01-04T06:34:55.854Z,7.7
2019-01-04T06:35:57.377Z,7.8
2019-01-04T06:36:58.893Z,7.9
2019-01-04T06:38:01.525Z,7.9
2019-01-04T06:39:03.076Z,7.9
2019-01-04T06:40:04.597Z,7.9
2019-01-04T06:41:06.104Z,7.9
2019-01-04T06:42:07.633Z,7.9
2019-01-04T06:43:09.020Z,7.9
2019-01-04T06:44:10.547Z,7.9
2019-01-04T06:45:11.930Z,7.9
2019-01-04T06:46:13.308Z,7.9
2019-01-04T06:47:14.830Z,7.9
2019-01-04T06:48:16.061Z,7.9
2019-01-04T06:49:17.599Z,7.9
2019-01-04T06:50:19.143Z,7.9
2019-01-04T06:51:20.655Z,7.9
2019-01-04T06:52:22.024Z,7.9
2019-01-04T06:53:23.544Z,7.9
2019-01-04T06:54:24.915Z,7.9
2019-01-04T06:55:26.465Z,7.9
2019-01-04T06:56:27.686Z,7.9
2019-01-04T06:57:29.193Z,7.9
2019-01-04T06:58:30.571Z,7.9
2019-01-04T06:59:32.094Z,7.9
2019-01-04T07:00:33.623Z,7.9
2019-01-04T07:01:35.175Z,7.9
2019-01-04T07:02:36.701Z,7.8
2019-01-04T07:03:38.245Z,7.8
2019-01-04T07:04:39.765Z,7.9
2019-01-04T07:05:41.133Z,7.9
2019-01-04T07:06:42.511Z,7.9
2019-01-04T07:07:44.040Z,7.9
2019-01-04T07:08:45.395Z,7.8
2019-01-04T07:09:46.964Z,7.9
2019-01-04T07:10:48.553Z,7.7
2019-01-04T07:11:50.109Z,7.8
2019-01-04T07:12:51.464Z,7.8
2019-01-04T07:13:52.398Z,7.8
2019-01-04T07:14:53.942Z,7.9
2019-01-04T07:15:55.454Z,7.9
2019-01-04T07:16:56.831Z,7.9
2019-01-04T07:17:58.405Z,7.9
2019-01-04T07:18:59.949Z,7.9
2019-01-04T07:20:01.217Z,7.8
2019-01-04T07:21:02.748Z,7.8
2019-01-04T07:22:04.275Z,7.8
2019-01-04T07:23:05.795Z,7.8
2019-01-04T07:24:07.190Z,7.8
2019-01-04T07:25:08.729Z,7.8
2019-01-04T07:26:10.275Z,7.8
2019-01-04T07:27:11.492Z,7.8
2019-01-04T07:28:12.767Z,7.8
2019-01-04T07:29:14.319Z,7.8
2019-01-04T07:30:15.860Z,7.7
2019-01-04T07:31:17.393Z,7.7
2019-01-04T07:32:18.748Z,7.8
2019-01-04T07:33:19.973Z,7.8
2019-01-04T07:34:21.347Z,7.8
2019-01-04T07:35:22.895Z,7.8
2019-01-04T07:36:24.274Z,7.8
2019-01-04T07:37:25.655Z,7.2
2019-01-04T07:38:27.169Z,7.2
2019-01-04T07:39:28.691Z,7.3
2019-01-04T07:40:30.058Z,7.3
2019-01-04T07:41:31.455Z,7.3
2019-01-04T07:42:32.999Z,7.4
2019-01-04T07:43:34.384Z,7.3
2019-01-04T07:44:35.755Z,7.3
2019-01-04T07:45:37.299Z,7.2
2019-01-04T07:46:38.860Z,7.2
2019-01-04T07:47:40.419Z,7.2
2019-01-04T07:48:41.785Z,7.2
2019-01-04T07:49:43.160Z,7.2
2019-01-04T07:50:44.519Z,7.2
2019-01-04T07:51:46.057Z,7.2
2019-01-04T07:52:47.274Z,7.2
2019-01-04T07:53:48.797Z,7.1
2019-01-04T07:54:50.343Z,7.1
2019-01-04T07:55:51.725Z,7.2
2019-01-04T07:56:52.942Z,7.2
2019-01-04T07:57:54.305Z,7.2
2019-01-04T07:58:55.832Z,7.1
2019-01-04T07:59:57.200Z,7.1
2019-01-04T08:00:58.576Z,7.2
2019-01-04T08:01:59.796Z,7.2
2019-01-04T08:03:01.007Z,7.2
2019-01-04T08:04:02.395Z,7.2
2019-01-04T08:05:03.936Z,7.2
2019-01-04T08:06:05.477Z,7.2
2019-01-04T08:07:06.845Z,7.2
2019-01-04T08:08:08.364Z,7.2
2019-01-04T08:09:09.580Z,7.3
2019-01-04T08:10:11.108Z,7.3
2019-01-04T08:11:12.639Z,7.4
2019-01-04T08:12:14.205Z,7.5
2019-01-04T08:13:15.743Z,7.6
2019-01-04T08:14:17.271Z,7.7
2019-01-04T08:15:18.639Z,7.8
2019-01-04T08:16:19.845Z,7.9
2019-01-04T08:17:21.214Z,7.9
2019-01-04T08:18:22.600Z,7.3
2019-01-04T08:19:23.833Z,7.3
2019-01-04T08:20:25.385Z,7.4
2019-01-04T08:21:26.753Z,7.4
2019-01-04T08:22:28.135Z,7.4
2019-01-04T08:23:29.682Z,7.5
2019-01-04T08:24:31.208Z,7.5
2019-01-04T08:25:32.756Z,7.6
2019-01-04T08:26:34.334Z,7.6
2019-01-04T08:27:35.883Z,7.6
2019-01-04T08:28:37.275Z,7.7
2019-01-04T08:29:38.645Z,7.7
2019-01-04T08:30:40.183Z,7.7
2019-01-04T08:31:41.746Z,7.8
2019-01-04T08:32:42.981Z,7.8
2019-01-04T08:33:44.225Z,7.8
2019-01-04T08:34:45.799Z,7.8
2019-01-04T08:35:47.241Z,7.9
2019-01-04T08:36:48.773Z,7.9
2019-01-04T08:37:50.174Z,7.9
2019-01-04T08:38:51.716Z,7.9
2019-01-04T08:39:53.110Z,7.8
2019-01-04T08:40:54.178Z,7.8
2019-01-04T08:41:55.727Z,7.8
2019-01-04T08:42:57.128Z,7.1
2019-01-04T08:43:58.700Z,7.2
2019-01-04T08:45:00.260Z,7.2
2019-01-04T08:46:01.494Z,7.2
2019-01-04T08:47:03.082Z,7.3
2019-01-04T08:48:04.597Z,7.3
2019-01-04T08:49:05.977Z,7.3
2019-01-04T08:50:07.351Z,7.3
2019-01-04T08:51:08.884Z,7.3
2019-01-04T08:52:10.437Z,7.3
2019-01-04T08:53:11.852Z,7.3
2019-01-04T08:54:13.393Z,7.3
2019-01-04T08:55:14.784Z,7.3
2019-01-04T08:56:16.314Z,7.4
2019-01-04T08:57:17.542Z,7.4
2019-01-04T08:58:18.936Z,7.4
2019-01-04T08:59:20.502Z,7.4
2019-01-04T09:00:22.045Z,7.4
2019-01-04T09:01:23.596Z,7.4
2019-01-04T09:02:24.879Z,7.4
2019-01-04T09:03:26.267Z,7.4
2019-01-04T09:04:27.826Z,7.4
2019-01-04T09:05:29.058Z,7.4
2019-01-04T09:06:30.599Z,7.4
2019-01-04T09:07:31.995Z,7.4
2019-01-04T09:08:33.420Z,7.3
2019-01-04T09:09:34.966Z,7.3
2019-01-04T09:10:36.509Z,7.3
2019-01-04T09:11:38.050Z,7.3
2019-01-04T09:12:39.623Z,7.4
2019-01-04T09:13:41.139Z,7.4
2019-01-04T09:14:42.521Z,7.4
2019-01-04T09:15:44.071Z,7.3
2019-01-04T09:16:45.458Z,7.3
2019-01-04T09:17:46.837Z,7.2
2019-01-04T09:18:48.229Z,7.2
2019-01-04T09:19:49.759Z,7.2
2019-01-04T09:20:51.140Z,7.2
2019-01-04T09:21:52.540Z,7.2
2019-01-04T09:22:54.075Z,7.2
2019-01-04T09:23:55.619Z,7.2
2019-01-04T09:24:57.053Z,7.2
2019-01-04T09:25:58.296Z,7.2
2019-01-04T09:26:59.870Z,7.2
2019-01-04T09:28:01.444Z,7.2
2019-01-04T09:29:02.990Z,7.2
2019-01-04T09:30:04.540Z,7.2
2019-01-04T09:31:05.927Z,7.1
2019-01-04T09:32:07.469Z,7.2
2019-01-04T09:33:08.882Z,7.2
2019-01-04T09:34:10.300Z,7.2
2019-01-04T09:35:11.845Z,7.1
2019-01-04T09:36:12.906Z,7.2
2019-01-04T09:37:14.276Z,7.2
2019-01-04T09:38:15.658Z,7.2
2019-01-04T09:39:16.875Z,7.2
2019-01-04T09:40:18.404Z,7.2
2019-01-04T09:41:19.644Z,7.2
2019-01-04T09:42:35.880Z,7.2
2019-01-04T09:43:37.456Z,7.2
2019-01-04T09:44:39.132Z,7.3
2019-01-04T09:45:40.735Z,7.3
2019-01-04T09:46:42.279Z,7.4
2019-01-04T09:47:43.664Z,7.5
2019-01-04T09:48:45.064Z,7.6
2019-01-04T09:49:46.617Z,7.7
2019-01-04T09:50:48.004Z,7.8
2019-01-04T09:51:49.438Z,7.9
2019-01-04T09:52:50.966Z,7.9
2019-01-04T09:53:52.530Z,7.9
2019-01-04T09:54:53.623Z,7.4
2019-01-04T09:55:55.004Z,7.5
2019-01-04T09:56:56.574Z,7.6
2019-01-04T09:57:57.983Z,7.7
2019-01-04T09:58:59.362Z,7.8
2019-01-04T10:00:00.992Z,7.8
2019-01-04T10:01:02.566Z,7.3
2019-01-04T10:02:04.186Z,7.4
2019-01-04T10:03:05.295Z,7.4
2019-01-04T10:04:06.730Z,7.5
2019-01-04T10:05:08.169Z,7.6
2019-01-04T10:06:09.683Z,7.7
2019-01-04T10:07:11.303Z,7.8
2019-01-04T10:08:12.402Z,7.8
2019-01-04T10:09:13.956Z,7.8
2019-01-04T10:10:15.352Z,7.8
2019-01-04T10:11:16.894Z,7.9
2019-01-04T10:12:18.282Z,7.9
2019-01-04T10:13:19.526Z,7.9
2019-01-04T10:14:21.069Z,7.9
2019-01-04T10:15:22.623Z,7.9
2019-01-04T10:16:24.012Z,7.8
2019-01-04T10:17:25.555Z,7.8
2019-01-04T10:18:27.113Z,7.8
2019-01-04T10:19:28.495Z,7.8
2019-01-04T10:20:29.920Z,7.8
2019-01-04T10:21:31.466Z,7.8
2019-01-04T10:22:33.045Z,7.8
2019-01-04T10:23:34.592Z,7.8
2019-01-04T10:24:36.143Z,7.8
2019-01-04T10:25:37.690Z,7.7
2019-01-04T10:26:38.756Z,7.7
2019-01-04T10:27:40.140Z,7.7
2019-01-04T10:28:41.533Z,7.7
2019-01-04T10:29:43.078Z,7.7
2019-01-04T10:30:44.607Z,7.7
2019-01-04T10:31:46.145Z,7.7
2019-01-04T10:32:47.524Z,7.7
2019-01-04T10:33:49.050Z,7.6
2019-01-04T10:34:50.603Z,7.6
2019-01-04T10:35:52.153Z,7.6
2019-01-04T10:36:53.744Z,7.6
2019-01-04T10:37:55.294Z,7.5
2019-01-04T10:38:56.540Z,7.5
2019-01-04T10:39:57.936Z,7.4
2019-01-04T10:40:59.487Z,7.4
2019-01-04T10:42:00.885Z,7.3
2019-01-04T10:43:02.441Z,7.3
2019-01-04T10:44:03.998Z,7.3
2019-01-04T10:45:05.542Z,7.2
2019-01-04T10:46:06.785Z,7.2
2019-01-04T10:47:08.374Z,7.2
2019-01-04T10:48:09.774Z,7.2
2019-01-04T10:49:11.335Z,7.3
2019-01-04T10:50:12.562Z,7.3
2019-01-04T10:51:13.788Z,7.3
2019-01-04T10:52:15.329Z,7.3
2019-01-04T10:53:16.747Z,7.2
2019-01-04T10:54:18.323Z,7.2
2019-01-04T10:55:19.864Z,7.2
2019-01-04T10:56:21.452Z,7.2
2019-01-04T10:57:22.844Z,7.2
2019-01-04T10:58:24.241Z,7.1
2019-01-04T10:59:25.786Z,7.2
2019-01-04T11:00:27.184Z,7.1
2019-01-04T11:01:28.716Z,7.1
2019-01-04T11:02:30.864Z,7.2
2019-01-04T11:03:32.393Z,7.2
2019-01-04T11:04:33.799Z,7.1
2019-01-04T11:05:35.333Z,7.1
2019-01-04T11:06:36.572Z,7.1
2019-01-04T11:07:38.109Z,7.1
2019-01-04T11:08:39.347Z,7.1
2019-01-04T11:09:40.578Z,7.2
2019-01-04T11:10:41.970Z,7.2
2019-01-04T11:11:43.529Z,7.2
2019-01-04T11:12:44.916Z,7.2
2019-01-04T11:13:46.476Z,7.2
2019-01-04T11:14:48.025Z,7.2
2019-01-04T11:15:49.559Z,7.2
2019-01-04T11:16:50.951Z,7.2
2019-01-04T11:17:52.195Z,7.2
2019-01-04T11:18:53.744Z,7.2
2019-01-04T11:19:54.968Z,7.2
2019-01-04T11:20:56.358Z,7.2
2019-01-04T11:21:57.915Z,7.3
2019-01-04T11:22:59.301Z,7.4
2019-01-04T11:24:00.825Z,7.5
2019-01-04T11:25:02.059Z,7.7
2019-01-04T11:26:03.274Z,7.9
2019-01-04T11:27:04.665Z,7.9
2019-01-04T11:28:06.183Z,7.4
2019-01-04T11:29:07.588Z,7.7
2019-01-04T11:30:08.957Z,7.9
2019-01-04T11:31:10.484Z,7.9
2019-01-04T11:32:12.013Z,7.7
2019-01-04T11:33:13.399Z,7.9
2019-01-04T11:34:14.606Z,7.9
2019-01-04T11:35:16.131Z,7.9
2019-01-04T11:36:17.676Z,7.9
2019-01-04T11:37:19.240Z,7.9
2019-01-04T11:38:20.789Z,7.9
2019-01-04T11:39:22.341Z,7.9
2019-01-04T11:40:23.572Z,7.9
2019-01-04T11:41:24.998Z,7.9
2019-01-04T11:42:26.218Z,7.9
2019-01-04T11:43:27.759Z,7.2
2019-01-04T11:44:29.291Z,7.3
2019-01-04T11:45:30.656Z,7.3
2019-01-04T11:46:31.890Z,7.4
2019-01-04T11:47:33.303Z,7.4
2019-01-04T11:48:34.710Z,7.5
2019-01-04T11:49:36.228Z,7.5
2019-01-04T11:50:37.772Z,7.6
2019-01-04T11:51:39.309Z,7.6
2019-01-04T11:52:40.708Z,7.5
2019-01-04T11:53:43.561Z,7.6
2019-01-04T11:54:45.108Z,7.6
2019-01-04T11:55:46.495Z,7.6
2019-01-04T11:56:48.032Z,7.6
2019-01-04T11:57:49.406Z,7.6
2019-01-04T11:58:50.988Z,7.6
2019-01-04T11:59:52.546Z,7.7
2019-01-04T12:00:53.947Z,7.7
2019-01-04T12:01:55.472Z,7.7
2019-01-04T12:02:57.008Z,7.7
2019-01-04T12:03:58.256Z,7.7
2019-01-04T12:04:59.642Z,7.7
2019-01-04T12:06:01.214Z,7.8
2019-01-04T12:07:02.655Z,7.8
2019-01-04T12:08:04.049Z,7.8
2019-01-04T12:09:05.114Z,7.8
2019-01-04T12:10:06.492Z,7.8
2019-01-04T12:11:07.868Z,7.8
2019-01-04T12:12:09.098Z,7.8
2019-01-04T12:13:10.500Z,7.8
2019-01-04T12:14:11.900Z,7.8
2019-01-04T12:15:13.424Z,7.8
2019-01-04T12:16:14.808Z,7.8
2019-01-04T12:17:16.354Z,7.8
2019-01-04T12:18:17.900Z,7.8
2019-01-04T12:19:19.130Z,7.8
2019-01-04T12:20:20.677Z,7.8
2019-01-04T12:21:22.216Z,7.8
2019-01-04T12:22:23.774Z,7.8
2019-01-04T12:23:25.553Z,7.8
2019-01-04T12:24:27.130Z,7.8
2019-01-04T12:25:28.555Z,7.8
2019-01-04T12:26:30.020Z,7.8
2019-01-04T12:27:31.396Z,7.7
2019-01-04T12:28:32.777Z,7.7
2019-01-04T12:29:34.333Z,7.7
2019-01-04T12:30:35.566Z,7.7
2019-01-04T12:31:37.122Z,7.7
2019-01-04T12:32:38.745Z,7.7
2019-01-04T12:33:40.310Z,7.8
2019-01-04T12:34:41.847Z,7.8
2019-01-04T12:35:43.240Z,7.8
2019-01-04T12:36:44.805Z,7.8
2019-01-04T12:37:46.027Z,7.7
2019-01-04T12:38:47.564Z,7.7
2019-01-04T12:39:49.102Z,7.6
2019-01-04T12:40:50.634Z,7.4
2019-01-04T12:41:52.030Z,7.3
2019-01-04T12:42:53.577Z,7.2
2019-01-04T12:43:55.145Z,7.2
2019-01-04T12:44:56.734Z,7.2
2019-01-04T12:45:58.264Z,7.1
2019-01-04T12:46:59.872Z,7.1
2019-01-04T12:48:01.282Z,7.1
2019-01-04T12:49:02.502Z,7.2
2019-01-04T12:50:03.778Z,7.1
2019-01-04T12:51:05.359Z,7.1
2019-01-04T12:52:06.903Z,7.1
2019-01-04T12:53:08.451Z,7.1
2019-01-04T12:54:10.035Z,7.1
2019-01-04T12:55:11.594Z,7.2
2019-01-04T12:56:12.847Z,7.2
2019-01-04T12:57:14.259Z,7.2
2019-01-04T12:58:15.653Z,7.2
2019-01-04T12:59:17.212Z,7.3
2019-01-04T13:00:18.804Z,7.3
2019-01-04T13:01:20.381Z,7.4
2019-01-04T13:02:21.761Z,7.4
2019-01-04T13:03:23.541Z,7.4
2019-01-04T13:04:24.933Z,7.5
2019-01-04T13:05:26.485Z,7.6
2019-01-04T13:06:27.920Z,7.7
2019-01-04T13:07:29.323Z,7.8
2019-01-04T13:08:30.689Z,7.9
2019-01-04T13:09:32.222Z,7.9
2019-01-04T13:10:33.598Z,7.9
2019-01-04T13:11:35.123Z,7.9
2019-01-04T13:12:36.688Z,7.9
2019-01-04T13:13:38.072Z,7.9
2019-01-04T13:14:39.620Z,7.9
2019-01-04T13:15:41.159Z,7.9
2019-01-04T13:16:42.697Z,7.9
2019-01-04T13:17:44.258Z,7.9
2019-01-04T13:18:45.644Z,7.9
2019-01-04T13:19:47.195Z,7.9
2019-01-04T13:20:48.578Z,7.9
2019-01-04T13:21:50.133Z,7.8
2019-01-04T13:22:51.685Z,7.9
2019-01-04T13:23:53.251Z,7.9
2019-01-04T13:24:54.659Z,7.9
2019-01-04T13:25:56.205Z,7.9
2019-01-04T13:26:57.792Z,7.9
2019-01-04T13:27:59.350Z,7.9
2019-01-04T13:29:00.741Z,7.9
2019-01-04T13:30:02.127Z,7.9
2019-01-04T13:31:03.530Z,7.9
2019-01-04T13:32:05.076Z,7.9
2019-01-04T13:33:06.476Z,7.8
2019-01-04T13:34:07.580Z,7.8
2019-01-04T13:35:09.101Z,7.8
2019-01-04T13:36:10.523Z,7.8
2019-01-04T13:37:11.905Z,7.8
2019-01-04T13:38:13.441Z,7.8
2019-01-04T13:39:14.908Z,7.8
2019-01-04T13:40:16.458Z,7.8
2019-01-04T13:41:18.025Z,7.8
2019-01-04T13:42:19.381Z,7.7
2019-01-04T13:43:20.944Z,7.7
2019-01-04T13:44:22.505Z,7.8
2019-01-04T13:45:24.113Z,7.8
2019-01-04T13:46:25.716Z,7.9
2019-01-04T13:47:33.741Z,7.9
2019-01-04T13:48:34.974Z,7.9
2019-01-04T13:49:36.571Z,7.9
2019-01-04T13:50:38.143Z,7.9
2019-01-04T13:51:39.552Z,7.9
2019-01-04T13:52:41.120Z,7.9
2019-01-04T13:53:42.673Z,7.9
2019-01-04T13:54:43.737Z,7.9
2019-01-04T13:55:45.295Z,7.9
2019-01-04T13:56:46.936Z,7.9
2019-01-04T13:57:48.375Z,7.9
2019-01-04T13:58:49.851Z,7.9
2019-01-04T13:59:51.392Z,7.9
2019-01-04T14:00:52.911Z,7.9
2019-01-04T14:01:54.293Z,7.9
2019-01-04T14:02:55.820Z,7.3
2019-01-04T14:03:57.347Z,7.4
2019-01-04T14:04:58.900Z,7.5
2019-01-04T14:06:00.463Z,7.7
2019-01-04T14:07:02.050Z,7.8